sensor_id;sensor_type;location;lat;lon;timestamp;P1;durP1;ratioP1;P2;durP2;ratioP2
4462;SDS011;2244;50.200;8.220;2023-05-14T00:01:23;11.67;;;5.30;;
4462;SDS011;2244;50.200;8.220;2023-05-14T00:03:50;11.90;;;4.83;;
4462;SDS011;2244;50.200;8.220;2023-05-14T00:06:18;11.50;;;5.53;;
4462;SDS011;2244;50.200;8.220;2023-05-14T00:08:45;16.50;;;5.77;;
4462;SDS011;2244;50.200;8.220;2023-05-14T00:11:13;11.47;;;5.20;;
4462;SDS011;2244;50.200;8.220;2023-05-14T00:13:40;11.40;;;5.10;;
4462;SDS011;2244;50.200;8.220;2023-05-14T00:16:07;14.30;;;5.60;;
4462;SDS011;2244;50.200;8.220;2023-05-14T00:18:35;13.40;;;6.30;;
4462;SDS011;2244;50.200;8.220;2023-05-14T00:21:02;13.93;;;6.47;;
4462;SDS011;2244;50.200;8.220;2023-05-14T00:23:29;13.90;;;5.70;;
4462;SDS011;2244;50.200;8.220;2023-05-14T00:25:57;12.20;;;5.90;;
4462;SDS011;2244;50.200;8.220;2023-05-14T00:28:24;12.23;;;5.80;;
4462;SDS011;2244;50.200;8.220;2023-05-14T00:30:52;12.37;;;6.20;;
4462;SDS011;2244;50.200;8.220;2023-05-14T00:33:19;14.27;;;7.10;;
4462;SDS011;2244;50.200;8.220;2023-05-14T00:35:47;13.30;;;6.47;;
4462;SDS011;2244;50.200;8.220;2023-05-14T00:38:14;13.13;;;7.00;;
4462;SDS011;2244;50.200;8.220;2023-05-14T00:40:45;13.80;;;6.37;;
4462;SDS011;2244;50.200;8.220;2023-05-14T00:43:14;14.50;;;6.80;;
4462;SDS011;2244;50.200;8.220;2023-05-14T00:45:41;14.53;;;6.50;;
4462;SDS011;2244;50.200;8.220;2023-05-14T00:48:09;11.43;;;5.80;;
4462;SDS011;2244;50.200;8.220;2023-05-14T00:50:36;12.20;;;6.30;;
4462;SDS011;2244;50.200;8.220;2023-05-14T00:53:04;18.07;;;6.43;;
4462;SDS011;2244;50.200;8.220;2023-05-14T00:55:33;13.00;;;6.60;;
4462;SDS011;2244;50.200;8.220;2023-05-14T00:58:01;18.50;;;6.30;;
4462;SDS011;2244;50.200;8.220;2023-05-14T01:00:28;12.50;;;6.30;;
4462;SDS011;2244;50.200;8.220;2023-05-14T01:02:56;15.20;;;6.43;;
4462;SDS011;2244;50.200;8.220;2023-05-14T01:05:26;13.70;;;7.13;;
4462;SDS011;2244;50.200;8.220;2023-05-14T01:07:57;12.77;;;5.93;;
4462;SDS011;2244;50.200;8.220;2023-05-14T01:10:36;14.33;;;6.30;;
4462;SDS011;2244;50.200;8.220;2023-05-14T01:13:10;11.70;;;5.73;;
4462;SDS011;2244;50.200;8.220;2023-05-14T01:15:33;12.13;;;6.50;;
4462;SDS011;2244;50.200;8.220;2023-05-14T01:18:03;11.63;;;5.40;;
4462;SDS011;2244;50.200;8.220;2023-05-14T01:20:30;14.70;;;6.23;;
4462;SDS011;2244;50.200;8.220;2023-05-14T01:22:57;12.50;;;6.20;;
4462;SDS011;2244;50.200;8.220;2023-05-14T01:25:25;12.93;;;5.57;;
4462;SDS011;2244;50.200;8.220;2023-05-14T01:30:39;12.73;;;6.47;;
4462;SDS011;2244;50.200;8.220;2023-05-14T01:33:06;11.87;;;5.57;;
4462;SDS011;2244;50.200;8.220;2023-05-14T01:35:34;12.40;;;6.00;;
4462;SDS011;2244;50.200;8.220;2023-05-14T01:38:07;13.30;;;6.43;;
4462;SDS011;2244;50.200;8.220;2023-05-14T01:40:30;12.23;;;6.30;;
4462;SDS011;2244;50.200;8.220;2023-05-14T01:42:59;13.70;;;6.23;;
4462;SDS011;2244;50.200;8.220;2023-05-14T01:45:26;11.70;;;5.80;;
4462;SDS011;2244;50.200;8.220;2023-05-14T01:47:54;12.37;;;6.13;;
4462;SDS011;2244;50.200;8.220;2023-05-14T01:50:21;14.30;;;6.77;;
4462;SDS011;2244;50.200;8.220;2023-05-14T01:52:49;14.33;;;5.97;;
4462;SDS011;2244;50.200;8.220;2023-05-14T01:55:18;14.57;;;5.50;;
4462;SDS011;2244;50.200;8.220;2023-05-14T01:57:45;12.03;;;6.13;;
4462;SDS011;2244;50.200;8.220;2023-05-14T02:00:13;12.80;;;6.37;;
4462;SDS011;2244;50.200;8.220;2023-05-14T02:02:40;13.83;;;6.50;;
4462;SDS011;2244;50.200;8.220;2023-05-14T02:05:08;13.93;;;7.10;;
4462;SDS011;2244;50.200;8.220;2023-05-14T02:07:36;12.83;;;6.07;;
4462;SDS011;2244;50.200;8.220;2023-05-14T02:10:04;12.70;;;6.93;;
4462;SDS011;2244;50.200;8.220;2023-05-14T02:12:31;13.03;;;5.57;;
4462;SDS011;2244;50.200;8.220;2023-05-14T02:14:58;12.97;;;6.60;;
4462;SDS011;2244;50.200;8.220;2023-05-14T02:17:26;13.07;;;6.67;;
4462;SDS011;2244;50.200;8.220;2023-05-14T02:19:53;14.40;;;8.70;;
4462;SDS011;2244;50.200;8.220;2023-05-14T02:22:21;15.07;;;7.40;;
4462;SDS011;2244;50.200;8.220;2023-05-14T02:24:48;11.77;;;6.07;;
4462;SDS011;2244;50.200;8.220;2023-05-14T02:27:16;14.60;;;6.73;;
4462;SDS011;2244;50.200;8.220;2023-05-14T02:29:44;12.87;;;6.90;;
4462;SDS011;2244;50.200;8.220;2023-05-14T02:32:11;14.10;;;6.40;;
4462;SDS011;2244;50.200;8.220;2023-05-14T02:34:39;12.10;;;6.03;;
4462;SDS011;2244;50.200;8.220;2023-05-14T02:37:06;12.73;;;7.30;;
4462;SDS011;2244;50.200;8.220;2023-05-14T02:39:33;12.50;;;6.63;;
4462;SDS011;2244;50.200;8.220;2023-05-14T02:42:01;18.43;;;8.57;;
4462;SDS011;2244;50.200;8.220;2023-05-14T02:44:28;15.87;;;7.70;;
4462;SDS011;2244;50.200;8.220;2023-05-14T02:46:57;18.03;;;8.87;;
4462;SDS011;2244;50.200;8.220;2023-05-14T02:49:24;17.13;;;7.73;;
4462;SDS011;2244;50.200;8.220;2023-05-14T02:51:52;15.30;;;7.53;;
4462;SDS011;2244;50.200;8.220;2023-05-14T02:54:19;16.00;;;8.40;;
4462;SDS011;2244;50.200;8.220;2023-05-14T02:56:47;15.50;;;7.77;;
4462;SDS011;2244;50.200;8.220;2023-05-14T02:59:14;14.93;;;8.80;;
4462;SDS011;2244;50.200;8.220;2023-05-14T03:01:42;14.87;;;8.17;;
4462;SDS011;2244;50.200;8.220;2023-05-14T03:04:10;17.47;;;8.40;;
4462;SDS011;2244;50.200;8.220;2023-05-14T03:06:37;17.83;;;9.50;;
4462;SDS011;2244;50.200;8.220;2023-05-14T03:09:05;16.50;;;8.47;;
4462;SDS011;2244;50.200;8.220;2023-05-14T03:11:33;16.07;;;9.80;;
4462;SDS011;2244;50.200;8.220;2023-05-14T03:14:00;16.80;;;8.67;;
4462;SDS011;2244;50.200;8.220;2023-05-14T03:16:28;19.57;;;8.60;;
4462;SDS011;2244;50.200;8.220;2023-05-14T03:18:55;20.10;;;11.43;;
4462;SDS011;2244;50.200;8.220;2023-05-14T03:21:22;17.60;;;10.03;;
4462;SDS011;2244;50.200;8.220;2023-05-14T03:23:51;17.73;;;9.70;;
4462;SDS011;2244;50.200;8.220;2023-05-14T03:26:18;15.83;;;9.10;;
4462;SDS011;2244;50.200;8.220;2023-05-14T03:28:47;17.03;;;10.87;;
4462;SDS011;2244;50.200;8.220;2023-05-14T03:31:14;17.93;;;9.90;;
4462;SDS011;2244;50.200;8.220;2023-05-14T03:33:41;15.73;;;9.30;;
4462;SDS011;2244;50.200;8.220;2023-05-14T03:36:09;22.83;;;9.87;;
4462;SDS011;2244;50.200;8.220;2023-05-14T03:38:36;17.47;;;9.20;;
4462;SDS011;2244;50.200;8.220;2023-05-14T03:41:04;17.80;;;9.07;;
4462;SDS011;2244;50.200;8.220;2023-05-14T03:43:31;16.37;;;10.20;;
4462;SDS011;2244;50.200;8.220;2023-05-14T03:45:58;15.57;;;9.67;;
4462;SDS011;2244;50.200;8.220;2023-05-14T03:48:26;16.13;;;9.10;;
4462;SDS011;2244;50.200;8.220;2023-05-14T03:50:54;18.50;;;11.20;;
4462;SDS011;2244;50.200;8.220;2023-05-14T03:53:21;20.30;;;12.90;;
4462;SDS011;2244;50.200;8.220;2023-05-14T03:55:48;19.07;;;11.90;;
4462;SDS011;2244;50.200;8.220;2023-05-14T03:58:17;14.80;;;8.30;;
4462;SDS011;2244;50.200;8.220;2023-05-14T04:00:44;20.80;;;11.00;;
4462;SDS011;2244;50.200;8.220;2023-05-14T04:03:11;15.40;;;9.60;;
4462;SDS011;2244;50.200;8.220;2023-05-14T04:05:39;16.73;;;9.73;;
4462;SDS011;2244;50.200;8.220;2023-05-14T04:08:06;19.67;;;11.57;;
4462;SDS011;2244;50.200;8.220;2023-05-14T04:10:34;17.37;;;10.93;;
4462;SDS011;2244;50.200;8.220;2023-05-14T04:13:01;15.80;;;9.13;;
4462;SDS011;2244;50.200;8.220;2023-05-14T04:15:29;17.17;;;10.57;;
4462;SDS011;2244;50.200;8.220;2023-05-14T04:17:56;19.20;;;11.60;;
4462;SDS011;2244;50.200;8.220;2023-05-14T04:20:23;18.50;;;10.90;;
4462;SDS011;2244;50.200;8.220;2023-05-14T04:22:52;18.63;;;11.83;;
4462;SDS011;2244;50.200;8.220;2023-05-14T04:25:19;19.00;;;10.10;;
4462;SDS011;2244;50.200;8.220;2023-05-14T04:27:47;19.83;;;11.33;;
4462;SDS011;2244;50.200;8.220;2023-05-14T04:30:14;18.73;;;10.33;;
4462;SDS011;2244;50.200;8.220;2023-05-14T04:32:42;21.93;;;10.53;;
4462;SDS011;2244;50.200;8.220;2023-05-14T04:35:09;17.60;;;10.30;;
4462;SDS011;2244;50.200;8.220;2023-05-14T04:37:38;13.80;;;7.77;;
4462;SDS011;2244;50.200;8.220;2023-05-14T04:40:06;16.20;;;7.90;;
4462;SDS011;2244;50.200;8.220;2023-05-14T04:42:34;14.80;;;7.73;;
4462;SDS011;2244;50.200;8.220;2023-05-14T04:45:01;14.90;;;8.97;;
4462;SDS011;2244;50.200;8.220;2023-05-14T04:47:30;15.27;;;9.10;;
4462;SDS011;2244;50.200;8.220;2023-05-14T04:49:58;14.13;;;8.53;;
4462;SDS011;2244;50.200;8.220;2023-05-14T04:52:25;15.57;;;8.20;;
4462;SDS011;2244;50.200;8.220;2023-05-14T04:54:53;14.80;;;7.90;;
4462;SDS011;2244;50.200;8.220;2023-05-14T04:57:20;16.93;;;8.13;;
4462;SDS011;2244;50.200;8.220;2023-05-14T04:59:48;13.77;;;7.63;;
4462;SDS011;2244;50.200;8.220;2023-05-14T05:02:15;15.40;;;7.10;;
4462;SDS011;2244;50.200;8.220;2023-05-14T05:04:42;13.27;;;6.93;;
4462;SDS011;2244;50.200;8.220;2023-05-14T05:07:10;15.20;;;6.97;;
4462;SDS011;2244;50.200;8.220;2023-05-14T05:09:38;16.60;;;6.50;;
4462;SDS011;2244;50.200;8.220;2023-05-14T05:12:06;15.63;;;7.30;;
4462;SDS011;2244;50.200;8.220;2023-05-14T05:14:33;16.37;;;6.97;;
4462;SDS011;2244;50.200;8.220;2023-05-14T05:17:00;13.00;;;6.83;;
4462;SDS011;2244;50.200;8.220;2023-05-14T05:19:28;15.47;;;8.63;;
4462;SDS011;2244;50.200;8.220;2023-05-14T05:21:57;14.27;;;8.00;;
4462;SDS011;2244;50.200;8.220;2023-05-14T05:24:24;18.63;;;9.47;;
4462;SDS011;2244;50.200;8.220;2023-05-14T05:26:52;16.67;;;9.57;;
4462;SDS011;2244;50.200;8.220;2023-05-14T05:29:21;15.10;;;8.93;;
4462;SDS011;2244;50.200;8.220;2023-05-14T05:31:48;17.10;;;10.90;;
4462;SDS011;2244;50.200;8.220;2023-05-14T05:34:16;15.47;;;8.83;;
4462;SDS011;2244;50.200;8.220;2023-05-14T05:36:43;14.33;;;7.67;;
4462;SDS011;2244;50.200;8.220;2023-05-14T05:39:11;19.33;;;6.90;;
4462;SDS011;2244;50.200;8.220;2023-05-14T05:41:38;14.87;;;8.00;;
4462;SDS011;2244;50.200;8.220;2023-05-14T05:44:06;14.13;;;7.10;;
4462;SDS011;2244;50.200;8.220;2023-05-14T05:46:33;13.40;;;8.10;;
4462;SDS011;2244;50.200;8.220;2023-05-14T05:49:01;15.20;;;7.53;;
4462;SDS011;2244;50.200;8.220;2023-05-14T05:51:29;14.03;;;7.47;;
4462;SDS011;2244;50.200;8.220;2023-05-14T05:53:57;13.77;;;7.37;;
4462;SDS011;2244;50.200;8.220;2023-05-14T05:56:24;15.67;;;7.80;;
4462;SDS011;2244;50.200;8.220;2023-05-14T05:58:52;14.03;;;8.40;;
4462;SDS011;2244;50.200;8.220;2023-05-14T06:01:19;17.70;;;10.67;;
4462;SDS011;2244;50.200;8.220;2023-05-14T06:03:46;17.50;;;8.80;;
4462;SDS011;2244;50.200;8.220;2023-05-14T06:06:14;18.50;;;10.67;;
4462;SDS011;2244;50.200;8.220;2023-05-14T06:08:42;17.43;;;10.10;;
4462;SDS011;2244;50.200;8.220;2023-05-14T06:11:09;18.17;;;8.80;;
4462;SDS011;2244;50.200;8.220;2023-05-14T06:13:37;18.43;;;8.50;;
4462;SDS011;2244;50.200;8.220;2023-05-14T06:16:05;16.13;;;7.97;;
4462;SDS011;2244;50.200;8.220;2023-05-14T06:18:33;15.07;;;8.30;;
4462;SDS011;2244;50.200;8.220;2023-05-14T06:21:00;17.63;;;7.63;;
4462;SDS011;2244;50.200;8.220;2023-05-14T06:23:28;13.60;;;7.10;;
4462;SDS011;2244;50.200;8.220;2023-05-14T06:25:55;14.27;;;6.97;;
4462;SDS011;2244;50.200;8.220;2023-05-14T06:28:23;14.10;;;7.20;;
4462;SDS011;2244;50.200;8.220;2023-05-14T06:30:50;13.20;;;6.50;;
4462;SDS011;2244;50.200;8.220;2023-05-14T06:33:19;12.87;;;6.30;;
4462;SDS011;2244;50.200;8.220;2023-05-14T06:35:48;13.00;;;7.20;;
4462;SDS011;2244;50.200;8.220;2023-05-14T06:38:16;15.87;;;6.23;;
4462;SDS011;2244;50.200;8.220;2023-05-14T06:40:43;12.30;;;6.20;;
4462;SDS011;2244;50.200;8.220;2023-05-14T06:43:13;13.20;;;6.37;;
4462;SDS011;2244;50.200;8.220;2023-05-14T06:45:41;13.50;;;6.00;;
4462;SDS011;2244;50.200;8.220;2023-05-14T06:48:08;16.03;;;5.67;;
4462;SDS011;2244;50.200;8.220;2023-05-14T06:50:36;14.50;;;5.87;;
4462;SDS011;2244;50.200;8.220;2023-05-14T06:53:03;12.80;;;5.07;;
4462;SDS011;2244;50.200;8.220;2023-05-14T06:55:31;14.43;;;5.30;;
4462;SDS011;2244;50.200;8.220;2023-05-14T06:57:58;11.13;;;5.00;;
4462;SDS011;2244;50.200;8.220;2023-05-14T07:00:26;13.10;;;6.23;;
4462;SDS011;2244;50.200;8.220;2023-05-14T07:02:53;11.10;;;5.17;;
4462;SDS011;2244;50.200;8.220;2023-05-14T07:05:21;13.87;;;5.87;;
4462;SDS011;2244;50.200;8.220;2023-05-14T07:07:48;12.63;;;5.83;;
4462;SDS011;2244;50.200;8.220;2023-05-14T07:10:16;10.93;;;4.80;;
4462;SDS011;2244;50.200;8.220;2023-05-14T07:12:44;11.60;;;5.57;;
4462;SDS011;2244;50.200;8.220;2023-05-14T07:15:11;13.30;;;5.40;;
4462;SDS011;2244;50.200;8.220;2023-05-14T07:17:38;15.23;;;4.73;;
4462;SDS011;2244;50.200;8.220;2023-05-14T07:20:06;12.47;;;4.90;;
4462;SDS011;2244;50.200;8.220;2023-05-14T07:22:34;13.03;;;4.90;;
4462;SDS011;2244;50.200;8.220;2023-05-14T07:25:01;12.93;;;5.70;;
4462;SDS011;2244;50.200;8.220;2023-05-14T07:27:28;14.70;;;5.70;;
4462;SDS011;2244;50.200;8.220;2023-05-14T07:29:56;11.83;;;4.67;;
4462;SDS011;2244;50.200;8.220;2023-05-14T07:32:23;12.87;;;5.67;;
4462;SDS011;2244;50.200;8.220;2023-05-14T07:34:51;11.13;;;4.93;;
4462;SDS011;2244;50.200;8.220;2023-05-14T07:37:18;11.40;;;4.90;;
4462;SDS011;2244;50.200;8.220;2023-05-14T07:39:49;13.80;;;6.03;;
4462;SDS011;2244;50.200;8.220;2023-05-14T07:42:16;11.37;;;5.40;;
4462;SDS011;2244;50.200;8.220;2023-05-14T07:44:46;10.90;;;4.67;;
4462;SDS011;2244;50.200;8.220;2023-05-14T07:47:13;10.90;;;5.10;;
4462;SDS011;2244;50.200;8.220;2023-05-14T07:49:41;15.53;;;4.63;;
4462;SDS011;2244;50.200;8.220;2023-05-14T07:52:08;9.60;;;3.97;;
4462;SDS011;2244;50.200;8.220;2023-05-14T07:54:36;10.30;;;4.47;;
4462;SDS011;2244;50.200;8.220;2023-05-14T07:57:03;11.40;;;4.17;;
4462;SDS011;2244;50.200;8.220;2023-05-14T07:59:31;11.73;;;4.10;;
4462;SDS011;2244;50.200;8.220;2023-05-14T08:01:58;13.23;;;4.07;;
4462;SDS011;2244;50.200;8.220;2023-05-14T08:04:26;11.63;;;4.63;;
4462;SDS011;2244;50.200;8.220;2023-05-14T08:06:54;9.93;;;4.30;;
4462;SDS011;2244;50.200;8.220;2023-05-14T08:09:23;10.60;;;3.80;;
4462;SDS011;2244;50.200;8.220;2023-05-14T08:11:50;9.60;;;3.90;;
4462;SDS011;2244;50.200;8.220;2023-05-14T08:14:18;10.47;;;4.30;;
4462;SDS011;2244;50.200;8.220;2023-05-14T08:16:46;9.33;;;3.90;;
4462;SDS011;2244;50.200;8.220;2023-05-14T08:19:14;11.60;;;4.20;;
4462;SDS011;2244;50.200;8.220;2023-05-14T08:21:42;9.90;;;3.97;;
4462;SDS011;2244;50.200;8.220;2023-05-14T08:24:09;10.10;;;4.20;;
4462;SDS011;2244;50.200;8.220;2023-05-14T08:26:37;11.80;;;4.30;;
4462;SDS011;2244;50.200;8.220;2023-05-14T08:29:04;10.40;;;4.17;;
4462;SDS011;2244;50.200;8.220;2023-05-14T08:31:33;10.10;;;3.87;;
4462;SDS011;2244;50.200;8.220;2023-05-14T08:34:01;12.13;;;4.50;;
4462;SDS011;2244;50.200;8.220;2023-05-14T08:36:29;10.60;;;3.70;;
4462;SDS011;2244;50.200;8.220;2023-05-14T08:38:56;10.07;;;4.53;;
4462;SDS011;2244;50.200;8.220;2023-05-14T08:41:24;13.17;;;5.80;;
4462;SDS011;2244;50.200;8.220;2023-05-14T08:44:05;10.30;;;4.00;;
4462;SDS011;2244;50.200;8.220;2023-05-14T08:46:22;11.10;;;4.73;;
4462;SDS011;2244;50.200;8.220;2023-05-14T08:48:54;10.80;;;4.43;;
4462;SDS011;2244;50.200;8.220;2023-05-14T08:51:18;12.07;;;4.60;;
4462;SDS011;2244;50.200;8.220;2023-05-14T08:53:46;9.80;;;3.90;;
4462;SDS011;2244;50.200;8.220;2023-05-14T08:56:14;10.47;;;4.33;;
4462;SDS011;2244;50.200;8.220;2023-05-14T08:58:42;10.10;;;3.60;;
4462;SDS011;2244;50.200;8.220;2023-05-14T09:01:10;11.30;;;4.30;;
4462;SDS011;2244;50.200;8.220;2023-05-14T09:03:37;10.60;;;4.27;;
4462;SDS011;2244;50.200;8.220;2023-05-14T09:06:05;11.40;;;4.00;;
4462;SDS011;2244;50.200;8.220;2023-05-14T09:08:33;11.63;;;4.30;;
4462;SDS011;2244;50.200;8.220;2023-05-14T09:11:01;9.80;;;3.97;;
4462;SDS011;2244;50.200;8.220;2023-05-14T09:13:29;10.20;;;3.80;;
4462;SDS011;2244;50.200;8.220;2023-05-14T09:15:57;9.30;;;3.33;;
4462;SDS011;2244;50.200;8.220;2023-05-14T09:18:24;9.43;;;3.77;;
4462;SDS011;2244;50.200;8.220;2023-05-14T09:20:52;10.67;;;3.60;;
4462;SDS011;2244;50.200;8.220;2023-05-14T09:23:19;9.07;;;3.20;;
4462;SDS011;2244;50.200;8.220;2023-05-14T09:25:47;10.53;;;4.30;;
4462;SDS011;2244;50.200;8.220;2023-05-14T09:28:15;9.97;;;3.77;;
4462;SDS011;2244;50.200;8.220;2023-05-14T09:30:52;9.47;;;3.40;;
4462;SDS011;2244;50.200;8.220;2023-05-14T09:33:26;9.87;;;3.63;;
4462;SDS011;2244;50.200;8.220;2023-05-14T09:35:54;10.90;;;3.70;;
4462;SDS011;2244;50.200;8.220;2023-05-14T09:38:27;10.67;;;3.73;;
4462;SDS011;2244;50.200;8.220;2023-05-14T09:40:56;9.43;;;3.50;;
4462;SDS011;2244;50.200;8.220;2023-05-14T09:43:24;10.00;;;3.97;;
4462;SDS011;2244;50.200;8.220;2023-05-14T09:45:51;8.90;;;3.27;;
4462;SDS011;2244;50.200;8.220;2023-05-14T09:48:19;10.60;;;3.63;;
4462;SDS011;2244;50.200;8.220;2023-05-14T09:50:48;10.60;;;3.47;;
4462;SDS011;2244;50.200;8.220;2023-05-14T09:53:15;10.07;;;3.97;;
4462;SDS011;2244;50.200;8.220;2023-05-14T09:55:43;9.63;;;3.70;;
4462;SDS011;2244;50.200;8.220;2023-05-14T09:58:11;9.77;;;4.00;;
4462;SDS011;2244;50.200;8.220;2023-05-14T10:00:43;8.70;;;3.40;;
4462;SDS011;2244;50.200;8.220;2023-05-14T10:03:11;10.10;;;4.30;;
4462;SDS011;2244;50.200;8.220;2023-05-14T10:05:40;9.70;;;3.30;;
4462;SDS011;2244;50.200;8.220;2023-05-14T10:08:17;8.60;;;3.30;;
4462;SDS011;2244;50.200;8.220;2023-05-14T10:10:39;9.77;;;3.30;;
4462;SDS011;2244;50.200;8.220;2023-05-14T10:13:09;8.70;;;3.07;;
4462;SDS011;2244;50.200;8.220;2023-05-14T10:15:48;10.90;;;3.73;;
4462;SDS011;2244;50.200;8.220;2023-05-14T10:18:18;10.60;;;3.40;;
4462;SDS011;2244;50.200;8.220;2023-05-14T10:20:47;12.50;;;4.07;;
4462;SDS011;2244;50.200;8.220;2023-05-14T10:23:14;10.03;;;3.90;;
4462;SDS011;2244;50.200;8.220;2023-05-14T10:25:42;11.77;;;3.80;;
4462;SDS011;2244;50.200;8.220;2023-05-14T10:28:09;8.93;;;3.63;;
4462;SDS011;2244;50.200;8.220;2023-05-14T10:30:43;10.40;;;3.90;;
4462;SDS011;2244;50.200;8.220;2023-05-14T10:33:12;9.93;;;3.70;;
4462;SDS011;2244;50.200;8.220;2023-05-14T10:38:21;8.50;;;3.10;;
4462;SDS011;2244;50.200;8.220;2023-05-14T10:40:47;12.00;;;3.80;;
4462;SDS011;2244;50.200;8.220;2023-05-14T10:43:17;12.67;;;3.63;;
4462;SDS011;2244;50.200;8.220;2023-05-14T10:45:45;9.03;;;3.30;;
4462;SDS011;2244;50.200;8.220;2023-05-14T10:48:13;11.00;;;3.37;;
4462;SDS011;2244;50.200;8.220;2023-05-14T10:50:40;10.10;;;3.63;;
4462;SDS011;2244;50.200;8.220;2023-05-14T10:53:11;14.80;;;2.87;;
4462;SDS011;2244;50.200;8.220;2023-05-14T10:55:40;9.50;;;3.40;;
4462;SDS011;2244;50.200;8.220;2023-05-14T10:58:09;8.40;;;2.57;;
4462;SDS011;2244;50.200;8.220;2023-05-14T11:00:37;11.30;;;3.50;;
4462;SDS011;2244;50.200;8.220;2023-05-14T11:03:04;8.60;;;2.80;;
4462;SDS011;2244;50.200;8.220;2023-05-14T11:05:33;8.73;;;2.90;;
4462;SDS011;2244;50.200;8.220;2023-05-14T11:08:03;9.40;;;3.10;;
4462;SDS011;2244;50.200;8.220;2023-05-14T11:10:31;11.30;;;2.90;;
4462;SDS011;2244;50.200;8.220;2023-05-14T11:12:58;10.20;;;2.90;;
4462;SDS011;2244;50.200;8.220;2023-05-14T11:15:26;9.00;;;3.07;;
4462;SDS011;2244;50.200;8.220;2023-05-14T11:17:54;10.50;;;3.10;;
4462;SDS011;2244;50.200;8.220;2023-05-14T11:20:22;8.40;;;3.00;;
4462;SDS011;2244;50.200;8.220;2023-05-14T11:22:49;8.90;;;2.77;;
4462;SDS011;2244;50.200;8.220;2023-05-14T11:25:17;9.13;;;2.83;;
4462;SDS011;2244;50.200;8.220;2023-05-14T11:27:46;10.00;;;2.83;;
4462;SDS011;2244;50.200;8.220;2023-05-14T11:30:17;8.37;;;2.70;;
4462;SDS011;2244;50.200;8.220;2023-05-14T11:32:45;8.10;;;2.60;;
4462;SDS011;2244;50.200;8.220;2023-05-14T11:35:13;9.33;;;3.07;;
4462;SDS011;2244;50.200;8.220;2023-05-14T11:37:41;8.90;;;2.80;;
4462;SDS011;2244;50.200;8.220;2023-05-14T11:40:13;8.77;;;2.73;;
4462;SDS011;2244;50.200;8.220;2023-05-14T11:42:37;8.40;;;2.77;;
4462;SDS011;2244;50.200;8.220;2023-05-14T11:45:05;9.77;;;3.03;;
4462;SDS011;2244;50.200;8.220;2023-05-14T11:47:32;9.50;;;2.80;;
4462;SDS011;2244;50.200;8.220;2023-05-14T11:50:00;9.20;;;2.90;;
4462;SDS011;2244;50.200;8.220;2023-05-14T11:52:27;8.93;;;3.23;;
4462;SDS011;2244;50.200;8.220;2023-05-14T11:54:55;9.40;;;3.20;;
4462;SDS011;2244;50.200;8.220;2023-05-14T11:57:22;9.67;;;2.90;;
4462;SDS011;2244;50.200;8.220;2023-05-14T11:59:54;8.80;;;2.60;;
4462;SDS011;2244;50.200;8.220;2023-05-14T12:02:18;9.37;;;3.00;;
4462;SDS011;2244;50.200;8.220;2023-05-14T12:04:48;9.10;;;3.00;;
4462;SDS011;2244;50.200;8.220;2023-05-14T12:07:15;8.30;;;2.77;;
4462;SDS011;2244;50.200;8.220;2023-05-14T12:09:44;10.40;;;3.10;;
4462;SDS011;2244;50.200;8.220;2023-05-14T12:12:13;8.47;;;2.50;;
4462;SDS011;2244;50.200;8.220;2023-05-14T12:14:40;10.30;;;2.80;;
4462;SDS011;2244;50.200;8.220;2023-05-14T12:17:10;11.27;;;3.60;;
4462;SDS011;2244;50.200;8.220;2023-05-14T12:19:38;9.07;;;2.97;;
4462;SDS011;2244;50.200;8.220;2023-05-14T12:22:07;10.67;;;3.20;;
4462;SDS011;2244;50.200;8.220;2023-05-14T12:24:35;8.50;;;2.90;;
4462;SDS011;2244;50.200;8.220;2023-05-14T12:27:02;8.40;;;2.73;;
4462;SDS011;2244;50.200;8.220;2023-05-14T12:29:33;8.30;;;2.60;;
4462;SDS011;2244;50.200;8.220;2023-05-14T12:31:59;10.00;;;2.50;;
4462;SDS011;2244;50.200;8.220;2023-05-14T12:34:28;8.73;;;2.70;;
4462;SDS011;2244;50.200;8.220;2023-05-14T12:36:55;9.60;;;3.13;;
4462;SDS011;2244;50.200;8.220;2023-05-14T12:39:22;8.97;;;3.03;;
4462;SDS011;2244;50.200;8.220;2023-05-14T12:41:50;10.27;;;2.73;;
4462;SDS011;2244;50.200;8.220;2023-05-14T12:44:18;9.70;;;3.07;;
4462;SDS011;2244;50.200;8.220;2023-05-14T12:46:47;8.77;;;2.97;;
4462;SDS011;2244;50.200;8.220;2023-05-14T12:49:14;11.80;;;2.70;;
4462;SDS011;2244;50.200;8.220;2023-05-14T12:51:42;10.23;;;3.10;;
4462;SDS011;2244;50.200;8.220;2023-05-14T12:54:09;8.40;;;2.67;;
4462;SDS011;2244;50.200;8.220;2023-05-14T12:56:37;8.50;;;2.40;;
4462;SDS011;2244;50.200;8.220;2023-05-14T12:59:04;8.80;;;2.90;;
4462;SDS011;2244;50.200;8.220;2023-05-14T13:01:32;7.90;;;2.30;;
4462;SDS011;2244;50.200;8.220;2023-05-14T13:03:59;8.00;;;2.40;;
4462;SDS011;2244;50.200;8.220;2023-05-14T13:06:26;11.30;;;2.63;;
4462;SDS011;2244;50.200;8.220;2023-05-14T13:08:54;9.50;;;2.73;;
4462;SDS011;2244;50.200;8.220;2023-05-14T13:11:22;8.70;;;3.10;;
4462;SDS011;2244;50.200;8.220;2023-05-14T13:13:49;9.10;;;2.60;;
4462;SDS011;2244;50.200;8.220;2023-05-14T13:16:16;8.53;;;2.90;;
4462;SDS011;2244;50.200;8.220;2023-05-14T13:18:44;8.87;;;2.83;;
4462;SDS011;2244;50.200;8.220;2023-05-14T13:21:11;10.23;;;3.20;;
4462;SDS011;2244;50.200;8.220;2023-05-14T13:23:39;8.90;;;2.97;;
4462;SDS011;2244;50.200;8.220;2023-05-14T13:26:06;8.90;;;2.90;;
4462;SDS011;2244;50.200;8.220;2023-05-14T13:28:34;8.70;;;2.90;;
4462;SDS011;2244;50.200;8.220;2023-05-14T13:31:02;10.00;;;2.87;;
4462;SDS011;2244;50.200;8.220;2023-05-14T13:33:31;11.03;;;3.07;;
4462;SDS011;2244;50.200;8.220;2023-05-14T13:35:58;9.70;;;2.90;;
4462;SDS011;2244;50.200;8.220;2023-05-14T13:38:26;9.00;;;3.17;;
4462;SDS011;2244;50.200;8.220;2023-05-14T13:40:53;9.50;;;2.57;;
4462;SDS011;2244;50.200;8.220;2023-05-14T13:43:22;9.13;;;2.67;;
4462;SDS011;2244;50.200;8.220;2023-05-14T13:45:50;8.60;;;3.07;;
4462;SDS011;2244;50.200;8.220;2023-05-14T13:48:17;8.30;;;2.50;;
4462;SDS011;2244;50.200;8.220;2023-05-14T13:50:45;8.70;;;2.60;;
4462;SDS011;2244;50.200;8.220;2023-05-14T13:53:12;9.10;;;3.33;;
4462;SDS011;2244;50.200;8.220;2023-05-14T13:55:39;9.30;;;3.13;;
4462;SDS011;2244;50.200;8.220;2023-05-14T13:58:07;9.33;;;3.10;;
4462;SDS011;2244;50.200;8.220;2023-05-14T14:00:35;8.43;;;2.80;;
4462;SDS011;2244;50.200;8.220;2023-05-14T14:03:02;9.57;;;2.77;;
4462;SDS011;2244;50.200;8.220;2023-05-14T14:05:30;10.00;;;2.80;;
4462;SDS011;2244;50.200;8.220;2023-05-14T14:07:58;9.63;;;2.80;;
4462;SDS011;2244;50.200;8.220;2023-05-14T14:10:27;8.40;;;2.60;;
4462;SDS011;2244;50.200;8.220;2023-05-14T14:12:54;9.97;;;2.87;;
4462;SDS011;2244;50.200;8.220;2023-05-14T14:15:22;9.97;;;2.67;;
4462;SDS011;2244;50.200;8.220;2023-05-14T14:17:49;9.27;;;2.80;;
4462;SDS011;2244;50.200;8.220;2023-05-14T14:20:17;7.70;;;2.23;;
4462;SDS011;2244;50.200;8.220;2023-05-14T14:22:44;7.77;;;2.00;;
4462;SDS011;2244;50.200;8.220;2023-05-14T14:25:12;9.20;;;2.90;;
4462;SDS011;2244;50.200;8.220;2023-05-14T14:27:39;8.67;;;2.60;;
4462;SDS011;2244;50.200;8.220;2023-05-14T14:30:07;8.33;;;2.63;;
4462;SDS011;2244;50.200;8.220;2023-05-14T14:32:36;9.40;;;3.03;;
4462;SDS011;2244;50.200;8.220;2023-05-14T14:35:04;8.67;;;2.50;;
4462;SDS011;2244;50.200;8.220;2023-05-14T14:37:31;7.87;;;2.40;;
4462;SDS011;2244;50.200;8.220;2023-05-14T14:39:59;8.17;;;2.40;;
4462;SDS011;2244;50.200;8.220;2023-05-14T14:42:26;8.70;;;2.43;;
4462;SDS011;2244;50.200;8.220;2023-05-14T14:44:53;8.93;;;2.60;;
4462;SDS011;2244;50.200;8.220;2023-05-14T14:47:21;8.30;;;1.90;;
4462;SDS011;2244;50.200;8.220;2023-05-14T14:49:48;8.07;;;2.20;;
4462;SDS011;2244;50.200;8.220;2023-05-14T14:52:16;8.97;;;2.20;;
4462;SDS011;2244;50.200;8.220;2023-05-14T14:54:43;7.63;;;1.90;;
4462;SDS011;2244;50.200;8.220;2023-05-14T14:57:11;8.63;;;2.53;;
4462;SDS011;2244;50.200;8.220;2023-05-14T14:59:38;8.63;;;2.17;;
4462;SDS011;2244;50.200;8.220;2023-05-14T15:02:06;8.07;;;1.87;;
4462;SDS011;2244;50.200;8.220;2023-05-14T15:04:34;8.63;;;2.00;;
4462;SDS011;2244;50.200;8.220;2023-05-14T15:07:01;11.50;;;2.00;;
4462;SDS011;2244;50.200;8.220;2023-05-14T15:09:29;7.90;;;2.00;;
4462;SDS011;2244;50.200;8.220;2023-05-14T15:11:57;9.00;;;2.00;;
4462;SDS011;2244;50.200;8.220;2023-05-14T15:14:24;7.70;;;1.60;;